createdAt,value
2022-08-26T00:01:58.272Z,4.35
2022-08-26T00:07:05.271Z,3.75
2022-08-26T00:12:12.257Z,3.60
2022-08-26T00:17:18.853Z,3.92
2022-08-26T00:22:23.519Z,4.45
2022-08-26T00:27:28.530Z,4.73
2022-08-26T00:32:34.064Z,3.60
2022-08-26T00:37:38.640Z,3.53
2022-08-26T00:42:46.127Z,3.72
2022-08-26T00:47:59.453Z,3.60
2022-08-26T00:53:05.375Z,3.67
2022-08-26T01:03:14.715Z,4.05
2022-08-26T01:08:18.800Z,4.15
2022-08-26T01:13:23.250Z,4.03
2022-08-26T01:18:29.546Z,4.47
2022-08-26T01:23:37.166Z,3.50
2022-08-26T01:28:42.687Z,3.97
2022-08-26T01:33:52.306Z,3.88
2022-08-26T01:38:57.771Z,4.03
2022-08-26T01:44:02.509Z,3.90
2022-08-26T01:49:08.545Z,3.72
2022-08-26T01:54:14.353Z,3.20
2022-08-26T01:59:19.020Z,3.25
2022-08-26T02:04:26.192Z,3.80
2022-08-26T02:09:32.208Z,3.58
2022-08-26T02:14:44.506Z,3.63
2022-08-26T02:19:50.816Z,3.40
2022-08-26T02:24:58.924Z,3.85
2022-08-26T02:30:10.177Z,3.70
2022-08-26T02:35:20.080Z,3.85
2022-08-26T02:40:30.485Z,3.58
2022-08-26T02:45:35.138Z,3.08
2022-08-26T02:50:39.492Z,4.07
2022-08-26T02:55:44.968Z,3.47
2022-08-26T03:00:53.693Z,3.50
2022-08-26T03:05:59.048Z,3.85
2022-08-26T03:11:04.476Z,3.50
2022-08-26T03:21:14.876Z,3.70
2022-08-26T03:26:20.329Z,3.83
2022-08-26T03:31:24.967Z,3.85
2022-08-26T03:36:29.373Z,3.65
2022-08-26T03:41:35.025Z,4.18
2022-08-26T03:46:39.810Z,3.72
2022-08-26T03:51:44.074Z,3.63
2022-08-26T03:56:50.261Z,3.90
2022-08-26T04:01:54.377Z,3.83
2022-08-26T04:06:59.999Z,3.58
2022-08-26T04:12:05.976Z,4.22
2022-08-26T04:17:10.045Z,4.25
2022-08-26T04:22:14.208Z,4.28
2022-08-26T04:27:19.656Z,4.10
2022-08-26T04:32:23.795Z,4.30
2022-08-26T04:37:27.906Z,3.85
2022-08-26T04:42:33.776Z,5.38
2022-08-26T04:47:38.252Z,4.68
2022-08-26T04:52:43.219Z,5.85
2022-08-26T04:57:48.651Z,7.38
2022-08-26T05:02:53.251Z,6.60
2022-08-26T05:07:57.371Z,5.32
2022-08-26T05:13:03.922Z,5.68
2022-08-26T05:18:16.506Z,5.18
2022-08-26T05:28:28.528Z,6.75
2022-08-26T05:33:32.514Z,5.45
2022-08-26T05:38:36.654Z,4.57
2022-08-26T05:43:42.087Z,4.50
2022-08-26T05:48:47.172Z,5.72
2022-08-26T05:53:54.850Z,6.75
2022-08-26T05:59:01.593Z,5.03
2022-08-26T06:04:05.692Z,5.30
2022-08-26T06:09:10.888Z,4.97
2022-08-26T06:14:17.674Z,6.45
2022-08-26T06:19:22.630Z,4.95
2022-08-26T06:24:44.085Z,4.63
2022-08-26T06:29:49.473Z,4.40
2022-08-26T06:34:53.803Z,4.32
2022-08-26T06:39:57.967Z,4.82
2022-08-26T06:45:03.547Z,6.43
2022-08-26T06:50:09.637Z,4.40
2022-08-26T06:55:13.811Z,4.50
2022-08-26T07:00:20.891Z,4.00
2022-08-26T07:05:25.775Z,4.38
2022-08-26T07:10:29.913Z,4.77
2022-08-26T07:15:36.207Z,4.53
2022-08-26T07:20:42.247Z,4.28
2022-08-26T07:25:46.361Z,4.50
2022-08-26T07:30:52.007Z,4.22
2022-08-26T07:35:57.123Z,4.07
2022-08-26T07:41:01.950Z,4.07
2022-08-26T07:46:08.255Z,4.88
2022-08-26T07:51:16.520Z,4.78
2022-08-26T07:56:20.503Z,4.53
2022-08-26T08:01:27.351Z,4.32
2022-08-26T08:06:32.568Z,4.18
2022-08-26T08:11:36.873Z,4.32
2022-08-26T08:16:46.884Z,3.83
2022-08-26T08:21:51.184Z,4.05
2022-08-26T08:26:55.559Z,4.70
2022-08-26T08:32:01.642Z,5.88
2022-08-26T08:37:10.069Z,4.75
2022-08-26T08:42:35.758Z,4.38
2022-08-26T08:47:44.084Z,4.30
2022-08-26T08:52:52.438Z,3.70
2022-08-26T08:58:02.466Z,3.95
2022-08-26T09:03:13.411Z,3.47
2022-08-26T09:08:20.063Z,4.13
2022-08-26T09:13:27.103Z,4.20
2022-08-26T09:18:52.391Z,3.92
2022-08-26T09:23:57.399Z,4.60
2022-08-26T09:29:03.338Z,4.30
2022-08-26T09:34:17.400Z,4.38
2022-08-26T09:39:33.213Z,4.20
2022-08-26T09:44:53.941Z,5.10
2022-08-26T09:50:04.241Z,3.88
2022-08-26T09:55:15.590Z,3.65
2022-08-26T10:00:34.247Z,4.10
2022-08-26T10:05:45.185Z,3.95
2022-08-26T10:10:49.159Z,4.55
2022-08-26T10:16:03.136Z,4.20
2022-08-26T10:21:14.174Z,4.45
2022-08-26T10:26:27.469Z,4.60
2022-08-26T10:31:40.190Z,4.45
2022-08-26T10:37:14.430Z,4.40
2022-08-26T10:42:24.820Z,5.80
2022-08-26T10:47:35.333Z,4.63
2022-08-26T10:52:50.894Z,5.03
2022-08-26T10:57:58.632Z,4.90
2022-08-26T11:03:09.469Z,4.65
2022-08-26T11:08:30.856Z,4.57
2022-08-26T11:14:01.093Z,4.35
2022-08-26T11:19:05.564Z,3.85
2022-08-26T11:24:11.108Z,4.95
2022-08-26T11:29:53.393Z,4.82
2022-08-26T11:34:59.340Z,4.30
2022-08-26T11:40:10.429Z,4.07
2022-08-26T11:45:20.885Z,4.00
2022-08-26T11:50:27.869Z,4.95
2022-08-26T11:55:34.878Z,4.43
2022-08-26T12:00:51.566Z,4.57
2022-08-26T12:05:57.391Z,4.40
2022-08-26T12:11:09.703Z,4.50
2022-08-26T12:16:13.732Z,4.23
2022-08-26T12:21:24.579Z,4.80
2022-08-26T12:26:31.896Z,4.55
2022-08-26T12:31:37.442Z,4.63
2022-08-26T12:36:46.714Z,4.45
2022-08-26T12:41:54.296Z,4.20
2022-08-26T12:47:03.861Z,3.80
2022-08-26T12:52:09.793Z,4.22
2022-08-26T12:57:15.182Z,3.90
2022-08-26T13:02:36.630Z,4.28
2022-08-26T13:07:41.059Z,4.40
2022-08-26T13:12:46.868Z,4.97
2022-08-26T13:17:50.689Z,5.43
2022-08-26T13:22:58.771Z,4.63
2022-08-26T13:28:14.210Z,8.60
2022-08-26T13:33:18.738Z,4.50
2022-08-26T13:38:33.734Z,5.78
2022-08-26T13:43:39.349Z,4.88
2022-08-26T13:48:43.406Z,5.00
2022-08-26T13:53:48.702Z,5.18
2022-08-26T13:58:54.076Z,4.57
2022-08-26T14:03:58.165Z,4.97
2022-08-26T14:09:02.057Z,4.93
2022-08-26T14:14:07.572Z,5.82
2022-08-26T14:19:11.999Z,4.63
2022-08-26T14:24:15.863Z,5.22
2022-08-26T14:29:21.238Z,4.90
2022-08-26T14:34:26.149Z,4.60
2022-08-26T14:39:30.054Z,4.68
2022-08-26T14:44:35.687Z,5.25
2022-08-26T14:49:39.497Z,4.20
2022-08-26T14:54:43.391Z,5.10
2022-08-26T14:59:50.523Z,5.50
2022-08-26T15:04:54.475Z,5.05
2022-08-26T15:09:58.983Z,5.63
2022-08-26T15:15:04.359Z,5.63
2022-08-26T15:20:10.267Z,5.75
2022-08-26T15:25:14.544Z,5.47
2022-08-26T15:30:19.770Z,5.43
2022-08-26T15:40:27.619Z,6.32
2022-08-26T15:45:33.835Z,5.88
2022-08-26T15:50:37.692Z,6.43
2022-08-26T15:55:41.511Z,6.68
2022-08-26T16:00:46.998Z,5.25
2022-08-26T16:05:51.105Z,6.55
2022-08-26T16:10:55.043Z,6.63
2022-08-26T16:16:02.360Z,5.13
2022-08-26T16:21:13.353Z,5.70
2022-08-26T16:26:20.760Z,5.57
2022-08-26T16:31:26.347Z,7.38
2022-08-26T16:36:30.421Z,7.60
2022-08-26T16:41:35.591Z,6.75
2022-08-26T16:46:41.254Z,6.70
2022-08-26T16:51:45.427Z,11.23
2022-08-26T16:56:49.386Z,5.85
2022-08-26T17:01:55.060Z,6.18
2022-08-26T17:06:59.118Z,6.28
2022-08-26T17:12:03.158Z,6.55
2022-08-26T17:17:08.904Z,7.53
2022-08-26T17:22:13.164Z,8.38
2022-08-26T17:27:17.215Z,7.28
2022-08-26T17:32:22.735Z,7.85
2022-08-26T17:37:26.774Z,7.47
2022-08-26T17:42:31.871Z,7.13
2022-08-26T17:47:37.463Z,7.85
2022-08-26T17:52:42.406Z,8.25
2022-08-26T17:57:53.648Z,9.10
2022-08-26T18:02:59.447Z,7.72
2022-08-26T18:08:03.591Z,7.30
2022-08-26T18:13:07.614Z,8.98
2022-08-26T18:18:13.590Z,7.60
2022-08-26T18:23:17.686Z,12.45
2022-08-26T18:28:21.762Z,7.65
2022-08-26T18:33:27.173Z,7.35
2022-08-26T18:38:31.176Z,8.63
2022-08-26T18:43:35.146Z,8.23
2022-08-26T18:48:41.607Z,8.80
2022-08-26T18:53:45.851Z,8.02
2022-08-26T18:58:50.065Z,8.13
2022-08-26T19:03:55.570Z,10.45
2022-08-26T19:08:59.776Z,8.93
2022-08-26T19:14:04.799Z,9.40
2022-08-26T19:19:10.694Z,8.52
2022-08-26T19:24:17.646Z,8.13
2022-08-26T19:29:22.951Z,8.50
2022-08-26T19:34:30.769Z,9.33
2022-08-26T19:39:36.174Z,8.70
2022-08-26T19:44:57.692Z,8.32
2022-08-26T19:50:03.253Z,8.18
2022-08-26T19:55:08.766Z,8.35
2022-08-26T20:00:16.023Z,8.45
2022-08-26T20:05:23.328Z,8.82
2022-08-26T20:10:27.567Z,9.25
2022-08-26T20:15:31.797Z,7.60
2022-08-26T20:20:54.582Z,8.40
2022-08-26T20:25:58.608Z,8.05
2022-08-26T20:31:03.400Z,8.27
2022-08-26T20:36:09.764Z,8.65
2022-08-26T20:41:13.866Z,7.80
2022-08-26T20:46:20.297Z,9.07
2022-08-26T20:51:28.490Z,7.40
2022-08-26T20:56:32.560Z,8.50
2022-08-26T21:01:42.151Z,8.15
2022-08-26T21:06:52.842Z,8.90
2022-08-26T21:11:57.222Z,8.70
2022-08-26T21:17:01.147Z,7.63
2022-08-26T21:22:06.672Z,7.75
2022-08-26T21:27:10.649Z,8.40
2022-08-26T21:32:15.795Z,8.93
2022-08-26T21:37:21.302Z,8.77
2022-08-26T21:42:26.676Z,7.90
2022-08-26T21:47:32.773Z,8.80
2022-08-26T21:52:39.420Z,8.18
2022-08-26T21:57:43.463Z,8.32
2022-08-26T22:02:48.068Z,7.63
2022-08-26T22:07:53.436Z,7.43
2022-08-26T22:12:57.422Z,7.43
2022-08-26T22:18:02.328Z,6.85
2022-08-26T22:23:07.923Z,8.30
2022-08-26T22:28:12.619Z,8.30
2022-08-26T22:33:16.958Z,7.38
2022-08-26T22:38:23.986Z,7.57
2022-08-26T22:43:29.811Z,8.35
2022-08-26T22:48:33.842Z,7.97
2022-08-26T22:53:40.047Z,7.78
2022-08-26T22:58:46.197Z,7.70
2022-08-26T23:03:50.253Z,8.60
2022-08-26T23:08:55.642Z,7.88
2022-08-26T23:14:00.542Z,8.43
2022-08-26T23:19:06.960Z,7.30
2022-08-26T23:24:13.019Z,8.10
2022-08-26T23:34:38.039Z,7.57
2022-08-26T23:39:44.567Z,8.07
2022-08-26T23:44:48.608Z,6.90
2022-08-26T23:49:52.911Z,7.10
2022-08-26T23:54:58.311Z,7.55
